KHNB/HNB METAR and TAF weather

Enter ICAO airport designator
Station Type Date Time Source
KHNB METAR 2022/06/28 23:56 UTC NOAA

KHNB 282356Z AUTO 09004KT 10SM CLR 24/10 A3019 RMK AO2 SLP219 T02440100 10256 20233 56010


Station Type Date Time Source
KHNB Decoded METAR 2022/06/28 23:56 UTC NOAA

Huntingburg, IN, United States (KHNB) 38-15N 086-57W
Jun 28, 2022 - 07:56 PM EDT / 2022.06.28 2356 UTC
Wind: from the E (090 degrees) at 5 MPH (4 KT):0
Visibility: 10 mile(s):0
Sky conditions: clear
Temperature: 75.9 F (24.4 C)
Dew Point: 50.0 F (10.0 C)
Relative Humidity: 40%
Pressure (altimeter): 30.19 in. Hg (1022 hPa)
Pressure tendency: 0.03 inches (1.0 hPa) lower than three hours ago
ob: KHNB 282356Z AUTO 09004KT 10SM CLR 24/10 A3019 RMK AO2 SLP219 T02440100 10256 20233 56010
cycle: 0

Station Type Date Time Source
KHNB TAF 2022/06/28 18:21 UTC NOAA

TAF KHNB 281720Z 2818/2918 05005KT P6SM FEW120 BKN200
FM290000 00000KT P6SM SKC

Example: see airport list